createdAt,value
2019-02-18T00:01:54.996Z,8.78
2019-02-18T00:04:37.035Z,8.65
2019-02-18T00:07:19.431Z,8.90
2019-02-18T00:10:01.755Z,7.72
2019-02-18T00:12:44.116Z,8.05
2019-02-18T00:15:26.287Z,7.53
2019-02-18T00:18:09.109Z,8.25
2019-02-18T00:20:51.431Z,8.63
2019-02-18T00:23:33.338Z,8.05
2019-02-18T00:26:16.266Z,8.00
2019-02-18T00:28:58.163Z,8.30
2019-02-18T00:31:40.679Z,7.92
2019-02-18T00:34:22.992Z,7.53
2019-02-18T00:37:05.175Z,7.80
2019-02-18T00:39:47.395Z,7.65
2019-02-18T00:42:29.516Z,8.70
2019-02-18T00:45:12.184Z,7.45
2019-02-18T00:47:54.059Z,8.05
2019-02-18T00:50:36.276Z,6.75
2019-02-18T00:53:18.601Z,7.75
2019-02-18T00:56:00.710Z,7.80
2019-02-18T00:58:43.792Z,7.75
2019-02-18T01:01:26.007Z,7.10
2019-02-18T01:04:07.839Z,7.40
2019-02-18T01:06:49.979Z,7.22
2019-02-18T01:09:31.928Z,7.30
2019-02-18T01:12:14.082Z,6.42
2019-02-18T01:14:56.273Z,6.97
2019-02-18T01:17:38.870Z,7.10
2019-02-18T01:20:20.771Z,6.97
2019-02-18T01:23:03.129Z,6.80
2019-02-18T01:25:45.679Z,7.70
2019-02-18T01:28:28.303Z,7.33
2019-02-18T01:31:10.450Z,7.08
2019-02-18T01:33:53.092Z,7.70
2019-02-18T01:36:34.963Z,6.80
2019-02-18T01:39:17.054Z,7.42
2019-02-18T01:41:59.471Z,6.92
2019-02-18T01:44:42.026Z,7.72
2019-02-18T01:47:24.331Z,7.05
2019-02-18T01:50:06.880Z,6.97
2019-02-18T01:52:49.459Z,6.90
2019-02-18T01:55:31.829Z,7.03
2019-02-18T01:58:14.136Z,7.40
2019-02-18T02:00:56.668Z,8.00
2019-02-18T02:03:38.808Z,7.25
2019-02-18T02:06:21.107Z,6.70
2019-02-18T02:09:04.472Z,6.70
2019-02-18T02:11:46.896Z,7.70
2019-02-18T02:14:29.067Z,6.20
2019-02-18T02:17:11.228Z,7.05
2019-02-18T02:19:53.291Z,6.65
2019-02-18T02:22:35.820Z,7.42
2019-02-18T02:25:17.995Z,7.10
2019-02-18T02:28:00.223Z,7.25
2019-02-18T02:30:42.195Z,6.10
2019-02-18T02:33:24.408Z,6.80
2019-02-18T02:36:06.745Z,6.40
2019-02-18T02:38:49.388Z,6.83
2019-02-18T02:41:31.564Z,6.90
2019-02-18T02:44:14.231Z,6.65
2019-02-18T02:46:56.155Z,7.20
2019-02-18T02:49:37.873Z,7.70
2019-02-18T02:52:20.151Z,6.85
2019-02-18T02:55:02.402Z,7.78
2019-02-18T02:57:45.084Z,7.10
2019-02-18T03:00:27.323Z,6.67
2019-02-18T03:03:09.348Z,7.15
2019-02-18T03:05:51.126Z,6.72
2019-02-18T03:08:33.539Z,6.70
2019-02-18T03:11:15.715Z,6.55
2019-02-18T03:13:57.917Z,7.12
2019-02-18T03:16:40.195Z,6.70
2019-02-18T03:19:22.739Z,7.22
2019-02-18T03:22:05.260Z,6.92
2019-02-18T03:24:47.112Z,7.25
2019-02-18T03:27:29.056Z,6.65
2019-02-18T03:30:11.847Z,7.08
2019-02-18T03:32:53.667Z,5.90
2019-02-18T03:35:35.824Z,6.60
2019-02-18T03:38:18.295Z,6.30
2019-02-18T03:41:03.238Z,6.20
2019-02-18T03:43:44.262Z,7.00
2019-02-18T03:46:26.462Z,6.40
2019-02-18T03:49:08.642Z,6.67
2019-02-18T03:51:51.130Z,6.65
2019-02-18T03:54:33.303Z,7.00
2019-02-18T03:57:15.308Z,6.72
2019-02-18T03:59:57.466Z,6.50
2019-02-18T04:02:39.365Z,6.42
2019-02-18T04:05:21.719Z,6.60
2019-02-18T04:08:04.120Z,6.05
2019-02-18T04:10:46.073Z,7.10
2019-02-18T04:13:28.459Z,6.90
2019-02-18T04:16:10.323Z,7.53
2019-02-18T04:18:42.073Z,6.30
2019-02-18T04:21:13.036Z,6.47
2019-02-18T04:23:43.920Z,5.30
2019-02-18T04:26:14.601Z,6.30
2019-02-18T04:28:45.352Z,6.60
2019-02-18T04:31:16.276Z,6.83
2019-02-18T04:33:47.280Z,6.90
2019-02-18T04:36:17.956Z,6.67
2019-02-18T04:38:53.977Z,6.25
2019-02-18T04:41:40.124Z,6.78
2019-02-18T04:44:11.175Z,6.92
2019-02-18T04:46:42.099Z,6.65
2019-02-18T04:49:12.929Z,5.95
2019-02-18T04:51:45.232Z,6.20
2019-02-18T04:54:16.040Z,6.65
2019-02-18T04:56:46.836Z,7.20
2019-02-18T04:59:17.630Z,7.28
2019-02-18T05:01:49.410Z,6.47
2019-02-18T05:04:20.238Z,6.70
2019-02-18T05:06:51.367Z,7.22
2019-02-18T05:09:24.250Z,7.00
2019-02-18T05:11:55.163Z,7.72
2019-02-18T05:14:27.676Z,6.35
2019-02-18T05:17:06.151Z,7.42
2019-02-18T05:19:36.846Z,7.67
2019-02-18T05:22:07.793Z,7.47
2019-02-18T05:24:39.631Z,6.62
2019-02-18T05:27:10.531Z,7.25
2019-02-18T05:29:41.388Z,5.72
2019-02-18T05:32:12.237Z,6.08
2019-02-18T05:34:44.107Z,7.70
2019-02-18T05:37:15.384Z,14.63
2019-02-18T05:39:46.302Z,14.30
2019-02-18T05:42:17.058Z,13.68
2019-02-18T05:44:50.154Z,12.25
2019-02-18T05:47:21.234Z,9.88
2019-02-18T05:49:52.169Z,10.53
2019-02-18T05:52:25.784Z,8.48
2019-02-18T05:54:56.626Z,9.20
2019-02-18T05:57:27.740Z,10.23
2019-02-18T05:59:58.741Z,9.58
2019-02-18T06:02:30.692Z,9.70
2019-02-18T06:05:03.140Z,8.20
2019-02-18T06:07:33.966Z,7.60
2019-02-18T06:10:05.212Z,8.05
2019-02-18T06:12:36.410Z,8.75
2019-02-18T06:15:08.088Z,9.58
2019-02-18T06:17:39.895Z,8.40
2019-02-18T06:20:10.672Z,8.45
2019-02-18T06:22:42.624Z,8.33
2019-02-18T06:25:14.718Z,8.90
2019-02-18T06:27:45.781Z,8.00
2019-02-18T06:30:24.067Z,8.55
2019-02-18T06:32:55.783Z,8.20
2019-02-18T06:35:27.059Z,8.55
2019-02-18T06:37:58.330Z,8.60
2019-02-18T06:40:30.552Z,8.23
2019-02-18T06:43:02.429Z,8.20
2019-02-18T06:45:45.994Z,7.53
2019-02-18T06:48:28.632Z,8.48
2019-02-18T06:51:00.149Z,9.45
2019-02-18T06:53:32.568Z,7.70
2019-02-18T06:56:03.421Z,9.00
2019-02-18T06:58:59.203Z,8.33
2019-02-18T07:01:47.267Z,8.93
2019-02-18T07:04:38.776Z,9.50
2019-02-18T07:07:29.230Z,9.50
2019-02-18T07:10:12.727Z,8.90
2019-02-18T07:12:47.072Z,8.48
2019-02-18T07:15:17.922Z,8.48
2019-02-18T07:17:48.781Z,9.43
2019-02-18T07:20:20.889Z,9.03
2019-02-18T07:22:51.734Z,9.43
2019-02-18T07:25:22.595Z,7.95
2019-02-18T07:27:53.727Z,8.85
2019-02-18T07:30:25.143Z,9.00
2019-02-18T07:32:56.222Z,9.58
2019-02-18T07:35:28.312Z,8.88
2019-02-18T07:37:59.129Z,8.00
2019-02-18T07:40:29.969Z,8.55
2019-02-18T07:43:00.739Z,7.92
2019-02-18T07:45:31.450Z,8.10
2019-02-18T07:48:02.578Z,7.83
2019-02-18T07:50:34.730Z,8.55
2019-02-18T07:53:05.715Z,8.35
2019-02-18T07:55:36.640Z,7.30
2019-02-18T07:58:08.456Z,8.63
2019-02-18T08:00:41.048Z,7.90
2019-02-18T08:03:11.973Z,8.70
2019-02-18T08:05:45.374Z,7.55
2019-02-18T08:08:16.186Z,7.78
2019-02-18T08:10:47.090Z,7.37
2019-02-18T08:13:18.907Z,8.05
2019-02-18T08:15:49.740Z,8.05
2019-02-18T08:18:24.603Z,9.33
2019-02-18T08:20:55.547Z,8.10
2019-02-18T08:23:26.404Z,8.83
2019-02-18T08:25:57.212Z,7.50
2019-02-18T08:28:28.115Z,7.08
2019-02-18T08:30:59.013Z,7.62
2019-02-18T08:33:29.764Z,7.10
2019-02-18T08:36:00.623Z,7.53
2019-02-18T08:38:33.272Z,7.47
2019-02-18T08:41:04.094Z,7.45
2019-02-18T08:43:35.046Z,7.70
2019-02-18T08:46:05.731Z,7.70
2019-02-18T08:48:36.510Z,7.67
2019-02-18T08:51:07.504Z,7.55
2019-02-18T08:53:38.087Z,7.45
2019-02-18T08:56:09.079Z,7.95
2019-02-18T08:58:39.960Z,7.78
2019-02-18T09:01:11.876Z,8.45
2019-02-18T09:03:42.969Z,8.78
2019-02-18T09:06:13.733Z,8.50
2019-02-18T09:08:44.390Z,8.70
2019-02-18T09:11:17.107Z,7.92
2019-02-18T09:13:48.019Z,9.20
2019-02-18T09:16:18.851Z,8.18
2019-02-18T09:18:49.695Z,8.98
2019-02-18T09:21:20.610Z,8.05
2019-02-18T09:24:10.236Z,7.75
2019-02-18T09:26:40.951Z,7.75
2019-02-18T09:29:11.997Z,7.42
2019-02-18T09:31:45.585Z,8.65
2019-02-18T09:34:18.341Z,8.70
2019-02-18T09:36:49.095Z,8.85
2019-02-18T09:39:30.676Z,8.03
2019-02-18T09:41:53.989Z,9.10
2019-02-18T09:44:24.667Z,9.45
2019-02-18T09:46:55.651Z,9.65
2019-02-18T09:49:26.505Z,9.10
2019-02-18T09:51:57.230Z,8.83
2019-02-18T09:54:30.846Z,8.50
2019-02-18T09:57:01.579Z,9.97
2019-02-18T09:59:32.416Z,9.18
2019-02-18T10:02:03.264Z,9.88
2019-02-18T10:04:34.186Z,9.80
2019-02-18T10:07:05.092Z,9.58
2019-02-18T10:09:35.808Z,10.70
2019-02-18T10:12:06.731Z,9.43
2019-02-18T10:14:37.533Z,10.47
2019-02-18T10:17:08.426Z,10.63
2019-02-18T10:19:39.256Z,10.93
2019-02-18T10:22:28.919Z,10.33
2019-02-18T10:28:34.275Z,11.03
2019-02-18T10:34:59.429Z,11.93
2019-02-18T10:44:04.716Z,12.60
2019-02-18T10:46:54.384Z,13.30
2019-02-18T10:49:44.078Z,13.10
2019-02-18T10:52:53.180Z,12.03
2019-02-18T10:59:20.266Z,12.70
2019-02-18T11:02:09.943Z,13.50
2019-02-18T11:14:44.957Z,13.30
2019-02-18T11:17:27.084Z,14.90
2019-02-18T11:20:09.723Z,12.77
2019-02-18T11:22:52.274Z,14.90
2019-02-18T11:25:34.358Z,13.30
2019-02-18T11:28:17.246Z,14.20
2019-02-18T11:30:59.389Z,13.20
2019-02-18T11:33:41.522Z,14.67
2019-02-18T11:36:24.051Z,14.10
2019-02-18T11:39:06.893Z,14.20
2019-02-18T11:41:48.964Z,13.87
2019-02-18T11:44:31.507Z,14.20
2019-02-18T11:47:13.437Z,15.53
2019-02-18T11:49:55.797Z,15.03
2019-02-18T11:52:37.555Z,14.27
2019-02-18T11:55:19.747Z,15.50
2019-02-18T11:58:02.134Z,14.90
2019-02-18T12:00:44.503Z,15.00
2019-02-18T12:03:26.487Z,14.53
2019-02-18T12:06:08.387Z,13.70
2019-02-18T12:08:50.578Z,16.03
2019-02-18T12:11:38.139Z,14.90
2019-02-18T12:14:16.985Z,14.60
2019-02-18T12:16:58.959Z,15.13
2019-02-18T12:19:41.628Z,14.40
2019-02-18T12:22:23.996Z,13.93
2019-02-18T12:25:06.112Z,14.17
2019-02-18T12:27:48.145Z,13.83
2019-02-18T12:30:32.369Z,12.73
2019-02-18T12:33:14.591Z,12.73
2019-02-18T12:35:57.616Z,12.03
2019-02-18T12:38:41.167Z,12.63
2019-02-18T12:41:23.047Z,12.10
2019-02-18T12:44:05.671Z,12.60
2019-02-18T12:46:47.592Z,13.60
2019-02-18T12:49:30.078Z,13.37
2019-02-18T12:52:12.311Z,12.67
2019-02-18T12:54:54.188Z,12.17
2019-02-18T12:57:36.333Z,12.43
2019-02-18T13:00:18.455Z,11.57
2019-02-18T13:03:00.646Z,12.27
2019-02-18T13:05:42.788Z,11.60
2019-02-18T13:08:25.228Z,12.03
2019-02-18T13:11:07.106Z,13.40
2019-02-18T13:13:49.283Z,12.63
2019-02-18T13:16:31.287Z,13.10
2019-02-18T13:19:14.093Z,11.70
2019-02-18T13:21:56.044Z,12.03
2019-02-18T13:24:38.659Z,11.57
2019-02-18T13:27:21.368Z,11.80
2019-02-18T13:30:03.871Z,11.67
2019-02-18T13:32:46.454Z,11.50
2019-02-18T13:35:28.559Z,10.07
2019-02-18T13:38:10.367Z,11.53
2019-02-18T13:40:52.508Z,10.23
2019-02-18T13:43:34.607Z,10.80
2019-02-18T13:46:16.566Z,12.00
2019-02-18T13:48:58.581Z,10.77
2019-02-18T13:51:40.929Z,10.50
2019-02-18T13:54:23.468Z,10.40
2019-02-18T13:57:10.085Z,10.03
2019-02-18T13:59:49.678Z,10.32
2019-02-18T14:02:32.620Z,10.73
2019-02-18T14:05:15.167Z,10.80
2019-02-18T14:07:57.334Z,9.90
2019-02-18T14:10:39.974Z,10.70
2019-02-18T14:13:21.976Z,10.17
2019-02-18T14:16:03.933Z,10.27
2019-02-18T14:18:45.805Z,8.93
2019-02-18T14:21:28.699Z,10.80
2019-02-18T14:24:11.477Z,9.50
2019-02-18T14:26:53.643Z,9.73
2019-02-18T14:29:35.545Z,10.10
2019-02-18T14:32:19.088Z,10.10
2019-02-18T14:35:02.004Z,11.27
2019-02-18T14:37:43.976Z,10.30
2019-02-18T14:40:27.112Z,9.90
2019-02-18T14:43:09.423Z,10.33
2019-02-18T14:45:52.094Z,10.37
2019-02-18T14:48:34.717Z,9.13
2019-02-18T14:51:16.547Z,10.30
2019-02-18T14:53:58.320Z,9.47
2019-02-18T14:56:41.236Z,9.50
2019-02-18T14:59:23.623Z,9.30
2019-02-18T15:02:05.586Z,8.90
2019-02-18T15:04:47.676Z,8.50
2019-02-18T15:07:29.684Z,9.57
2019-02-18T15:10:11.868Z,8.70
2019-02-18T15:12:54.897Z,9.63
2019-02-18T15:15:37.540Z,8.60
2019-02-18T15:18:20.360Z,8.50
2019-02-18T15:21:02.823Z,8.60
2019-02-18T15:23:45.038Z,9.33
2019-02-18T15:26:27.503Z,8.87
2019-02-18T15:29:09.761Z,8.90
2019-02-18T15:31:51.758Z,8.77
2019-02-18T15:34:33.827Z,8.90
2019-02-18T15:37:16.116Z,8.80
2019-02-18T15:39:57.913Z,9.27
2019-02-18T15:42:42.498Z,9.97
2019-02-18T15:45:24.483Z,10.23
2019-02-18T15:48:07.053Z,8.53
2019-02-18T15:50:49.599Z,9.50
2019-02-18T15:53:32.008Z,9.60
2019-02-18T15:56:14.052Z,9.80
2019-02-18T15:58:56.387Z,11.10
2019-02-18T16:01:38.618Z,9.80
2019-02-18T16:04:20.732Z,9.20
2019-02-18T16:07:03.350Z,9.07
2019-02-18T16:09:46.252Z,9.80
2019-02-18T16:12:28.519Z,9.60
2019-02-18T16:15:10.692Z,9.13
2019-02-18T16:17:52.757Z,10.10
2019-02-18T16:20:34.936Z,9.93
2019-02-18T16:23:17.132Z,9.70
2019-02-18T16:25:59.371Z,10.07
2019-02-18T16:28:41.431Z,10.00
2019-02-18T16:31:24.098Z,11.10
2019-02-18T16:34:06.376Z,10.30
2019-02-18T16:36:48.332Z,10.83
2019-02-18T16:39:30.851Z,12.20
2019-02-18T16:42:13.773Z,12.10
2019-02-18T16:44:55.974Z,12.37
2019-02-18T16:47:37.999Z,13.40
2019-02-18T16:50:20.474Z,13.50
2019-02-18T16:53:02.433Z,14.37
2019-02-18T16:55:44.774Z,16.33
2019-02-18T16:58:27.289Z,16.90
2019-02-18T17:01:09.795Z,16.90
2019-02-18T17:03:52.721Z,15.60
2019-02-18T17:06:35.254Z,16.57
2019-02-18T17:09:17.971Z,17.70
2019-02-18T17:12:00.255Z,16.93
2019-02-18T17:14:42.746Z,17.43
2019-02-18T17:17:24.768Z,16.07
2019-02-18T17:20:07.173Z,16.63
2019-02-18T17:22:49.375Z,16.63
2019-02-18T17:25:31.596Z,15.40
2019-02-18T17:28:14.082Z,15.77
2019-02-18T17:30:56.451Z,16.20
2019-02-18T17:33:38.571Z,15.67
2019-02-18T17:36:20.466Z,15.97
2019-02-18T17:39:02.950Z,15.40
2019-02-18T17:41:45.174Z,17.20
2019-02-18T17:44:27.285Z,19.17
2019-02-18T17:47:09.568Z,17.20
2019-02-18T17:49:51.778Z,17.23
2019-02-18T17:52:33.840Z,19.27
2019-02-18T17:55:16.304Z,18.43
2019-02-18T17:57:58.878Z,18.10
2019-02-18T18:00:43.447Z,16.87
2019-02-18T18:03:26.044Z,14.60
2019-02-18T18:06:08.452Z,15.47
2019-02-18T18:08:50.719Z,16.03
2019-02-18T18:11:32.780Z,16.93
2019-02-18T18:14:14.936Z,16.20
2019-02-18T18:16:57.316Z,17.00
2019-02-18T18:19:40.011Z,17.93
2019-02-18T18:22:22.388Z,17.20
2019-02-18T18:25:04.455Z,19.30
2019-02-18T18:27:46.530Z,21.70
2019-02-18T18:30:29.004Z,23.07
2019-02-18T18:33:11.408Z,23.07
2019-02-18T18:35:53.629Z,21.17
2019-02-18T18:38:36.273Z,23.17
2019-02-18T18:41:18.828Z,27.80
2019-02-18T18:44:01.205Z,26.40
2019-02-18T18:46:43.134Z,23.87
2019-02-18T18:49:25.238Z,22.97
2019-02-18T18:52:07.798Z,21.97
2019-02-18T18:54:49.552Z,22.23
2019-02-18T18:57:31.882Z,20.53
2019-02-18T19:00:15.491Z,20.13
2019-02-18T19:02:57.536Z,18.23
2019-02-18T19:05:40.015Z,18.10
2019-02-18T19:08:22.309Z,18.03
2019-02-18T19:11:04.690Z,18.97
2019-02-18T19:13:46.714Z,18.90
2019-02-18T19:16:29.048Z,19.73
2019-02-18T19:19:12.191Z,19.50
2019-02-18T19:21:54.324Z,17.07
2019-02-18T19:24:36.782Z,18.60
2019-02-18T19:27:19.179Z,16.93
2019-02-18T19:30:01.144Z,14.50
2019-02-18T19:32:43.352Z,15.60
2019-02-18T19:35:26.039Z,15.53
2019-02-18T19:38:08.299Z,14.60
2019-02-18T19:40:50.592Z,13.53
2019-02-18T19:43:33.427Z,13.60
2019-02-18T19:46:15.367Z,13.17
2019-02-18T19:48:58.025Z,15.87
2019-02-18T19:51:40.473Z,14.47
2019-02-18T19:54:22.836Z,14.40
2019-02-18T19:57:05.369Z,16.10
2019-02-18T19:59:47.196Z,16.00
2019-02-18T20:02:29.316Z,15.40
2019-02-18T20:05:11.513Z,18.77
2019-02-18T20:07:53.601Z,22.20
2019-02-18T20:10:35.558Z,21.40
2019-02-18T20:13:18.232Z,17.93
2019-02-18T20:16:00.467Z,17.57
2019-02-18T20:18:43.027Z,15.63
2019-02-18T20:21:25.679Z,16.60
2019-02-18T20:24:08.203Z,17.30
2019-02-18T20:26:50.629Z,18.53
2019-02-18T20:29:32.850Z,17.90
2019-02-18T20:32:15.426Z,19.23
2019-02-18T20:34:57.848Z,19.67
2019-02-18T20:37:39.955Z,15.27
2019-02-18T20:40:22.342Z,15.97
2019-02-18T20:43:04.488Z,14.80
2019-02-18T20:45:47.443Z,14.05
2019-02-18T20:48:29.981Z,14.57
2019-02-18T20:51:12.565Z,15.40
2019-02-18T20:53:55.052Z,14.30
2019-02-18T20:56:37.794Z,13.58
2019-02-18T20:59:19.972Z,12.57
2019-02-18T21:02:02.618Z,14.90
2019-02-18T21:04:45.373Z,15.40
2019-02-18T21:07:27.613Z,15.78
2019-02-18T21:10:10.411Z,16.80
2019-02-18T21:12:52.744Z,16.67
2019-02-18T21:15:34.666Z,16.47
2019-02-18T21:18:16.997Z,16.37
2019-02-18T21:20:59.199Z,17.55
2019-02-18T21:23:41.678Z,17.40
2019-02-18T21:26:24.384Z,17.15
2019-02-18T21:29:06.666Z,16.20
2019-02-18T21:31:49.098Z,16.55
2019-02-18T21:34:31.441Z,17.57
2019-02-18T21:37:13.576Z,17.20
2019-02-18T21:39:55.934Z,16.52
2019-02-18T21:42:38.207Z,16.13
2019-02-18T21:45:20.212Z,17.30
2019-02-18T21:48:02.254Z,18.40
2019-02-18T21:50:44.701Z,16.60
2019-02-18T21:53:27.836Z,17.70
2019-02-18T21:56:10.028Z,15.88
2019-02-18T21:58:52.335Z,17.70
2019-02-18T22:01:34.373Z,15.30
2019-02-18T22:04:17.969Z,15.75
2019-02-18T22:07:00.172Z,16.07
2019-02-18T22:09:42.356Z,16.30
2019-02-18T22:12:25.195Z,17.32
2019-02-18T22:15:07.520Z,16.45
2019-02-18T22:17:50.034Z,16.02
2019-02-18T22:20:32.749Z,16.10
2019-02-18T22:23:15.303Z,16.17
2019-02-18T22:25:58.284Z,16.32
2019-02-18T22:28:29.212Z,15.13
2019-02-18T22:31:01.418Z,16.70
2019-02-18T22:33:32.399Z,19.65
2019-02-18T22:36:03.071Z,16.15
2019-02-18T22:38:33.752Z,16.20
2019-02-18T22:41:04.787Z,14.65
2019-02-18T22:43:35.494Z,15.65
2019-02-18T22:46:06.366Z,14.73
2019-02-18T22:48:37.278Z,14.20
2019-02-18T22:51:08.067Z,15.30
2019-02-18T22:53:39.005Z,14.90
2019-02-18T22:56:09.867Z,15.28
2019-02-18T22:58:41.559Z,14.18
2019-02-18T23:01:13.835Z,15.23
2019-02-18T23:03:44.716Z,15.40
2019-02-18T23:06:15.587Z,15.53
2019-02-18T23:08:46.748Z,16.35
2019-02-18T23:11:17.727Z,15.78
2019-02-18T23:13:48.409Z,15.48
2019-02-18T23:16:19.266Z,15.88
2019-02-18T23:18:51.241Z,15.55
2019-02-18T23:21:22.351Z,15.75
2019-02-18T23:23:54.592Z,15.72
2019-02-18T23:26:25.450Z,17.27
2019-02-18T23:28:56.410Z,15.63
2019-02-18T23:31:28.062Z,15.63
2019-02-18T23:33:58.812Z,16.20
2019-02-18T23:36:29.438Z,17.05
2019-02-18T23:39:00.170Z,16.17
2019-02-18T23:41:30.807Z,17.27
2019-02-18T23:44:01.409Z,17.32
2019-02-18T23:46:32.084Z,16.00
2019-02-18T23:49:02.706Z,18.70
2019-02-18T23:51:33.383Z,18.17
2019-02-18T23:54:04.052Z,16.80
2019-02-18T23:56:34.731Z,17.67
2019-02-18T23:59:05.387Z,17.62
